Time;durP1;ratioP1;P1;durP2;ratioP2;P2;SDS_P1;SDS_P2;PMS_P1;PMS_P2;Temp;Humidity;BMP_temperature;BMP_pressure;BME280_temperature;BME280_humidity;BME280_pressure;Samples;Min_cycle;Max_cycle;Signal;HPM_P1;HPM_P2
2022/02/26 00:01:40;;;;;;;13.60;5.90;;;;;;;-0.79;79.66;97321.26;107520;1272;32222;-74
2022/02/26 00:04:11;;;;;;;8.50;5.40;;;;;;;-0.70;79.30;97319.11;107479;1273;38446;-74
2022/02/26 00:06:43;;;;;;;10.40;5.50;;;;;;;-0.54;78.55;97314.41;107449;1273;50065;-74
2022/02/26 00:09:14;;;;;;;12.40;6.80;;;;;;;-0.47;77.89;97317.02;107450;1272;45020;-73
2022/02/26 00:11:45;;;;;;;12.70;7.00;;;;;;;-0.47;77.51;97319.02;107509;1272;36089;-74
2022/02/26 00:14:16;;;;;;;7.90;4.80;;;;;;;-0.50;77.51;97320.41;107506;1273;38699;-74
2022/02/26 00:16:47;;;;;;;8.40;5.10;;;;;;;-0.60;77.15;97320.08;107533;1273;43006;-74
2022/02/26 00:19:17;;;;;;;12.60;6.00;;;;;;;-0.87;77.35;97326.56;107504;1273;36484;-74
2022/02/26 00:21:49;;;;;;;13.50;8.50;;;;;;;-0.90;77.62;97326.41;107457;1273;43334;-74
2022/02/26 00:24:19;;;;;;;15.20;7.60;;;;;;;-0.81;77.91;97327.45;107430;1272;35927;-74
2022/02/26 00:26:51;;;;;;;9.70;5.30;;;;;;;-0.85;77.94;97330.45;107512;1272;43858;-74
2022/02/26 00:29:22;;;;;;;13.60;6.70;;;;;;;-0.79;77.85;97335.11;107505;1273;45426;-74
2022/02/26 00:31:53;;;;;;;12.30;6.80;;;;;;;-0.70;77.50;97333.27;107453;1273;39443;-74
2022/02/26 00:34:25;;;;;;;19.10;9.80;;;;;;;-0.66;77.32;97334.50;107454;1273;44161;-74
2022/02/26 00:36:55;;;;;;;15.80;9.80;;;;;;;-0.71;77.04;97333.29;107458;1273;33276;-74
2022/02/26 00:39:26;;;;;;;19.30;10.00;;;;;;;-0.78;77.15;97338.13;107437;1273;50595;-74
2022/02/26 00:41:58;;;;;;;13.80;7.90;;;;;;;-0.88;77.12;97341.83;107477;1273;44696;-74
2022/02/26 00:44:28;;;;;;;14.30;7.10;;;;;;;-0.98;77.32;97344.64;107511;1273;34864;-74
2022/02/26 00:46:59;;;;;;;11.40;7.50;;;;;;;-0.95;77.32;97338.02;107420;1274;41903;-74
2022/02/26 00:49:50;;;;;;;13.00;7.80;;;;;;;-0.88;77.24;97336.43;107463;1273;38690;-74
2022/02/26 00:52:24;;;;;;;17.80;8.80;;;;;;;-0.78;77.22;97335.59;107494;1273;30120;-74
2022/02/26 00:54:55;;;;;;;15.40;7.30;;;;;;;-0.73;76.95;97336.47;107486;1273;33020;-74
2022/02/26 00:57:28;;;;;;;13.40;7.60;;;;;;;-0.72;76.97;97335.80;107374;1274;40062;-74
2022/02/26 01:00:14;;;;;;;14.00;7.60;;;;;;;-0.77;76.70;97332.80;107440;1274;41839;-74
2022/02/26 01:02:46;;;;;;;12.30;6.40;;;;;;;-0.87;76.72;97326.75;107502;1272;43702;-74
2022/02/26 01:05:37;;;;;;;11.70;6.50;;;;;;;-0.89;76.65;97328.41;107440;1273;34232;-74
2022/02/26 01:08:08;;;;;;;13.90;6.60;;;;;;;-0.84;76.76;97328.50;107502;1273;33913;-74
2022/02/26 01:10:39;;;;;;;12.00;7.30;;;;;;;-0.79;76.63;97334.79;107534;1273;29982;-74
2022/02/26 01:13:09;;;;;;;13.80;7.60;;;;;;;-0.81;76.57;97337.70;107569;1273;31507;-74
2022/02/26 01:15:55;;;;;;;13.30;7.50;;;;;;;-0.83;76.28;97334.09;107466;1273;44902;-74
2022/02/26 01:18:27;;;;;;;12.10;6.70;;;;;;;-0.83;76.04;97332.77;107532;1273;32929;-74
2022/02/26 01:20:57;;;;;;;15.80;7.10;;;;;;;-0.85;75.97;97329.65;107446;1273;41908;-74
2022/02/26 01:23:28;;;;;;;10.60;5.40;;;;;;;-0.89;75.84;97328.61;107506;1273;47771;-74
2022/02/26 01:25:59;;;;;;;14.70;7.50;;;;;;;-0.93;76.13;97330.63;107504;1273;33902;-74
2022/02/26 01:28:30;;;;;;;11.20;6.00;;;;;;;-0.91;76.07;97333.13;107509;1272;33545;-74
2022/02/26 01:31:01;;;;;;;11.30;5.70;;;;;;;-0.90;75.81;97335.22;107463;1272;41707;-73
2022/02/26 01:33:32;;;;;;;13.40;6.60;;;;;;;-0.91;75.80;97335.80;107434;1273;63366;-74
2022/02/26 01:36:03;;;;;;;15.90;7.70;;;;;;;-0.90;75.84;97336.82;107526;1273;30723;-74
2022/02/26 01:38:35;;;;;;;13.70;6.90;;;;;;;-0.89;75.89;97341.63;107466;1272;42507;-74
2022/02/26 01:41:07;;;;;;;11.40;6.80;;;;;;;-0.89;75.66;97337.23;107500;1273;41785;-74
2022/02/26 01:43:38;;;;;;;14.40;7.90;;;;;;;-0.88;75.56;97342.04;107523;1273;42363;-74
2022/02/26 01:46:10;;;;;;;14.40;7.80;;;;;;;-0.94;75.89;97347.77;107572;1272;55239;-74
2022/02/26 01:48:42;;;;;;;13.50;6.60;;;;;;;-0.97;75.51;97345.46;107501;1273;33147;-74
2022/02/26 01:51:12;;;;;;;9.80;4.80;;;;;;;-1.06;75.47;97344.73;107496;1272;30999;-74
2022/02/26 01:53:44;;;;;;;13.10;7.00;;;;;;;-1.09;75.96;97344.75;107481;1272;39522;-74
2022/02/26 01:56:15;;;;;;;10.90;5.50;;;;;;;-1.06;75.89;97338.96;107533;1273;37977;-74
2022/02/26 01:58:46;;;;;;;8.50;4.30;;;;;;;-1.04;75.91;97339.62;107505;1273;34976;-74
2022/02/26 02:01:17;;;;;;;11.40;5.10;;;;;;;-0.98;75.71;97332.92;107494;1273;33895;-74
2022/02/26 02:03:51;;;;;;;9.60;4.70;;;;;;;-0.91;75.50;97327.96;107465;1273;41924;-74
2022/02/26 02:06:22;;;;;;;12.00;6.10;;;;;;;-0.92;75.46;97334.13;107308;1273;210782;-74
2022/02/26 02:08:53;;;;;;;10.80;6.30;;;;;;;-0.95;75.46;97333.95;107443;1273;39234;-74
2022/02/26 02:11:25;;;;;;;10.20;5.70;;;;;;;-0.97;75.47;97341.02;107459;1274;31728;-74
2022/02/26 02:13:55;;;;;;;12.30;6.10;;;;;;;-0.98;75.37;97339.89;107481;1273;40313;-74
2022/02/26 02:16:26;;;;;;;11.30;5.70;;;;;;;-1.01;75.37;97339.52;107479;1273;39788;-73
2022/02/26 02:18:57;;;;;;;10.80;5.40;;;;;;;-0.98;75.45;97343.41;107481;1273;42116;-74
2022/02/26 02:21:28;;;;;;;9.00;5.00;;;;;;;-0.96;75.27;97346.91;107496;1273;51730;-74
2022/02/26 02:23:59;;;;;;;12.40;6.30;;;;;;;-0.95;74.92;97341.31;107493;1274;30805;-74
2022/02/26 02:26:31;;;;;;;14.50;4.90;;;;;;;-0.95;74.86;97350.61;107473;1273;31721;-74
2022/02/26 02:29:02;;;;;;;13.40;5.60;;;;;;;-0.94;74.93;97349.00;107441;1274;32942;-74
2022/02/26 02:31:33;;;;;;;9.80;3.80;;;;;;;-0.95;74.72;97347.20;107228;1273;284049;-74
2022/02/26 02:34:04;;;;;;;10.10;5.50;;;;;;;-0.98;74.76;97348.45;107465;1273;60652;-74
2022/02/26 02:36:43;;;;;;;12.70;5.50;;;;;;;-0.98;74.53;97347.60;107544;1273;46998;-74
2022/02/26 02:39:15;;;;;;;9.30;4.60;;;;;;;-0.95;74.23;97351.36;107592;1273;40431;-74
2022/02/26 02:41:46;;;;;;;11.90;6.40;;;;;;;-0.96;74.07;97353.84;107509;1273;33737;-74
2022/02/26 02:44:17;;;;;;;9.60;4.60;;;;;;;-0.91;74.05;97351.34;107513;1272;33500;-74
2022/02/26 02:46:48;;;;;;;8.10;3.80;;;;;;;-0.90;73.78;97351.39;107486;1273;31658;-74
2022/02/26 02:49:19;;;;;;;13.00;5.30;;;;;;;-0.90;73.65;97352.48;107516;1273;34248;-74
2022/02/26 02:51:50;;;;;;;6.10;2.60;;;;;;;-0.93;73.40;97355.06;107437;1273;59284;-74
2022/02/26 02:54:21;;;;;;;10.20;5.10;;;;;;;-0.93;73.41;97361.47;107421;1273;51146;-74
2022/02/26 02:56:52;;;;;;;4.70;3.10;;;;;;;-0.93;73.48;97355.38;107472;1273;40053;-74
2022/02/26 02:59:24;;;;;;;5.30;2.40;;;;;;;-0.94;73.46;97361.81;107431;1273;41024;-74
2022/02/26 03:01:55;;;;;;;9.40;4.60;;;;;;;-0.93;73.29;97359.95;107476;1273;42961;-74
2022/02/26 03:04:26;;;;;;;8.70;4.30;;;;;;;-0.96;73.33;97363.64;107505;1273;43512;-74
2022/02/26 03:06:57;;;;;;;8.50;4.70;;;;;;;-0.99;73.24;97362.56;107450;1273;33881;-74
2022/02/26 03:09:28;;;;;;;7.70;4.40;;;;;;;-1.05;73.25;97364.48;107497;1273;28786;-74
2022/02/26 03:11:59;;;;;;;7.20;4.00;;;;;;;-1.11;73.64;97361.02;107512;1273;35054;-74
2022/02/26 03:14:30;;;;;;;5.10;2.90;;;;;;;-1.14;73.50;97359.73;107475;1273;44521;-74
2022/02/26 03:17:01;;;;;;;4.10;3.20;;;;;;;-1.17;73.57;97365.44;107503;1270;48260;-74
2022/02/26 03:19:32;;;;;;;9.40;4.80;;;;;;;-1.14;73.58;97367.02;107474;1273;41929;-74
2022/02/26 03:22:03;;;;;;;6.70;4.20;;;;;;;-1.14;73.41;97368.30;107488;1273;30939;-74
2022/02/26 03:24:34;;;;;;;9.40;5.10;;;;;;;-1.16;73.44;97366.63;107466;1274;38093;-74
2022/02/26 03:27:06;;;;;;;7.30;4.40;;;;;;;-1.12;73.30;97367.52;107531;1273;29621;-75
2022/02/26 03:29:37;;;;;;;7.60;4.00;;;;;;;-1.12;73.08;97368.17;107564;1273;41434;-74
2022/02/26 03:32:10;;;;;;;10.10;4.10;;;;;;;-1.11;73.13;97367.06;107500;1273;35243;-74
2022/02/26 03:34:41;;;;;;;9.30;5.40;;;;;;;-1.12;73.23;97372.52;107474;1273;39868;-75
2022/02/26 03:37:12;;;;;;;7.20;4.60;;;;;;;-1.14;72.97;97376.20;107524;1273;43627;-74
2022/02/26 03:39:43;;;;;;;8.60;4.70;;;;;;;-1.21;73.13;97375.61;107485;1273;41270;-74
2022/02/26 03:42:14;;;;;;;8.90;4.30;;;;;;;-1.24;73.22;97379.35;107526;1273;31807;-75
2022/02/26 03:44:47;;;;;;;6.40;3.80;;;;;;;-1.29;73.03;97382.52;107468;1271;43346;-75
2022/02/26 03:47:19;;;;;;;3.80;2.20;;;;;;;-1.26;73.30;97386.52;107510;1273;47087;-74
2022/02/26 03:49:51;;;;;;;7.20;3.60;;;;;;;-1.16;73.10;97379.23;107505;1271;31002;-74
2022/02/26 03:52:23;;;;;;;6.50;3.50;;;;;;;-1.13;72.85;97382.65;107501;1273;39876;-74
2022/02/26 03:54:55;;;;;;;5.40;3.40;;;;;;;-1.12;72.76;97384.98;107469;1271;41784;-74
2022/02/26 03:57:26;;;;;;;4.30;2.80;;;;;;;-1.08;72.66;97390.43;107523;1273;35046;-74
2022/02/26 03:59:57;;;;;;;6.10;2.60;;;;;;;-1.13;72.02;97395.86;107525;1273;41664;-74
2022/02/26 04:02:28;;;;;;;4.90;3.20;;;;;;;-1.23;71.81;97401.21;107459;1273;36119;-74
2022/02/26 04:04:59;;;;;;;5.10;2.90;;;;;;;-1.31;72.22;97404.27;107489;1273;40857;-74
2022/02/26 04:07:30;;;;;;;7.40;3.30;;;;;;;-1.32;72.38;97407.98;107489;1273;39494;-74
2022/02/26 04:10:01;;;;;;;9.20;4.20;;;;;;;-1.37;72.37;97413.86;107481;1273;59447;-74
2022/02/26 04:12:32;;;;;;;8.50;3.90;;;;;;;-1.41;72.48;97416.27;107488;1273;48456;-74
2022/02/26 04:15:04;;;;;;;4.00;2.10;;;;;;;-1.44;72.80;97418.31;107536;1273;31240;-74
2022/02/26 04:17:35;;;;;;;10.10;5.10;;;;;;;-1.44;72.98;97422.80;107556;1273;48360;-74
2022/02/26 04:20:09;;;;;;;9.60;5.20;;;;;;;-1.53;72.88;97421.95;107487;1273;34073;-74
2022/02/26 04:22:40;;;;;;;6.30;3.70;;;;;;;-1.68;73.10;97423.95;107544;1273;43514;-74
2022/02/26 04:25:12;;;;;;;6.50;3.70;;;;;;;-1.89;73.10;97426.08;107431;1274;44939;-74
2022/02/26 04:27:43;;;;;;;6.90;3.50;;;;;;;-2.03;73.34;97431.52;107493;1271;44355;-74
2022/02/26 04:30:14;;;;;;;5.80;2.40;;;;;;;-2.18;73.60;97435.70;107503;1272;41820;-74
2022/02/26 04:32:46;;;;;;;5.00;2.30;;;;;;;-2.27;73.83;97438.42;107418;1273;44043;-74
2022/02/26 04:35:16;;;;;;;5.70;2.80;;;;;;;-2.35;73.95;97441.84;107485;1273;39841;-74
2022/02/26 04:37:47;;;;;;;8.40;4.00;;;;;;;-2.38;74.31;97442.23;107544;1273;41241;-74
2022/02/26 04:40:18;;;;;;;5.90;3.60;;;;;;;-2.36;74.64;97446.93;107440;1273;44144;-74
2022/02/26 04:42:49;;;;;;;7.90;3.50;;;;;;;-2.34;74.88;97447.98;107451;1274;35652;-74
2022/02/26 04:45:20;;;;;;;7.10;4.00;;;;;;;-2.34;74.93;97455.88;107447;1274;33557;-74
2022/02/26 04:47:52;;;;;;;7.30;4.30;;;;;;;-2.42;75.14;97456.21;107502;1273;33606;-74
2022/02/26 04:50:23;;;;;;;3.60;2.50;;;;;;;-2.29;75.68;97462.94;107505;1270;31002;-74
2022/02/26 04:52:54;;;;;;;4.60;2.80;;;;;;;-2.12;75.78;97465.75;107484;1273;31925;-74
2022/02/26 04:55:25;;;;;;;6.40;3.40;;;;;;;-1.93;75.68;97468.31;107460;1273;45742;-74
2022/02/26 04:57:56;;;;;;;5.80;2.30;;;;;;;-1.80;75.65;97468.17;107478;1273;40858;-74
2022/02/26 05:00:26;;;;;;;6.80;3.10;;;;;;;-1.68;75.42;97469.70;107511;1273;33164;-74
2022/02/26 05:02:58;;;;;;;5.00;2.40;;;;;;;-1.61;75.15;97471.80;107436;1274;32307;-74
2022/02/26 05:05:29;;;;;;;7.40;3.20;;;;;;;-1.55;75.16;97472.31;107489;1273;43321;-74
2022/02/26 05:08:00;;;;;;;6.00;4.10;;;;;;;-1.54;74.97;97473.73;107446;1274;70918;-74
2022/02/26 05:10:31;;;;;;;6.20;3.10;;;;;;;-1.53;74.94;97478.95;107471;1273;44511;-74
2022/02/26 05:13:02;;;;;;;10.10;4.30;;;;;;;-1.50;74.67;97477.07;107404;1274;45631;-74
2022/02/26 05:15:33;;;;;;;6.50;3.90;;;;;;;-1.50;74.71;97486.11;107461;1274;44648;-74
2022/02/26 05:18:04;;;;;;;4.20;2.20;;;;;;;-1.48;74.66;97489.92;107451;1273;52421;-74
2022/02/26 05:20:36;;;;;;;7.50;2.90;;;;;;;-1.47;74.49;97492.90;107374;1273;42440;-74
2022/02/26 05:23:06;;;;;;;6.00;4.00;;;;;;;-1.44;74.37;97498.77;107528;1273;29225;-74
2022/02/26 05:25:38;;;;;;;7.80;4.00;;;;;;;-1.37;74.14;97504.31;107508;1273;33311;-74
2022/02/26 05:28:09;;;;;;;8.90;5.90;;;;;;;-1.42;74.03;97507.52;107516;1273;31924;-74
2022/02/26 05:30:39;;;;;;;6.80;4.20;;;;;;;-1.49;74.03;97509.92;107428;1274;35661;-74
2022/02/26 05:33:10;;;;;;;9.20;4.70;;;;;;;-1.51;74.10;97512.54;107525;1273;27729;-74
2022/02/26 05:35:41;;;;;;;9.30;4.60;;;;;;;-1.49;74.01;97517.55;107454;1273;42076;-74
2022/02/26 05:38:12;;;;;;;7.50;4.60;;;;;;;-1.50;73.90;97520.39;107465;1273;33899;-74
2022/02/26 05:40:43;;;;;;;9.00;4.80;;;;;;;-1.50;73.99;97521.79;107449;1273;44706;-74
2022/02/26 05:43:14;;;;;;;5.40;3.50;;;;;;;-1.52;74.02;97525.52;107484;1273;35850;-74
2022/02/26 05:45:45;;;;;;;5.50;2.50;;;;;;;-1.52;74.07;97527.89;107551;1273;37860;-74
2022/02/26 05:48:16;;;;;;;7.70;4.30;;;;;;;-1.52;74.17;97532.33;107479;1272;47620;-74
2022/02/26 05:50:47;;;;;;;8.30;3.70;;;;;;;-1.52;74.04;97538.85;107512;1273;35885;-74
2022/02/26 05:53:18;;;;;;;8.60;4.60;;;;;;;-1.51;74.32;97538.06;107523;1273;31617;-74
2022/02/26 05:55:49;;;;;;;9.60;5.40;;;;;;;-1.24;74.38;97539.46;107531;1273;30108;-74
2022/02/26 05:58:19;;;;;;;7.40;4.30;;;;;;;-0.90;74.22;97542.77;107493;1273;49593;-75
2022/02/26 06:00:50;;;;;;;5.40;4.00;;;;;;;-0.59;73.44;97544.43;107483;1273;40593;-74
2022/02/26 06:03:22;;;;;;;8.10;4.60;;;;;;;-0.31;72.88;97546.98;107518;1270;31662;-74
2022/02/26 06:05:53;;;;;;;7.90;4.60;;;;;;;-0.06;72.30;97549.46;107472;1273;47785;-74
2022/02/26 06:08:24;;;;;;;9.30;4.60;;;;;;;0.05;71.73;97554.02;107502;1273;34096;-74
2022/02/26 06:10:55;;;;;;;9.40;5.30;;;;;;;0.08;71.31;97551.62;107427;1274;38489;-74
2022/02/26 06:13:26;;;;;;;9.90;5.10;;;;;;;0.26;71.37;97557.35;107395;1273;42582;-74
2022/02/26 06:15:57;;;;;;;9.70;5.80;;;;;;;0.55;70.87;97551.84;107448;1274;71420;-74
2022/02/26 06:18:28;;;;;;;10.20;5.50;;;;;;;0.93;70.30;97552.58;107456;1273;42968;-75
2022/02/26 06:20:59;;;;;;;8.30;5.00;;;;;;;1.37;69.98;97551.05;107502;1273;33206;-74
2022/02/26 06:23:30;;;;;;;8.00;5.30;;;;;;;1.90;69.42;97551.36;107450;1273;44184;-74
2022/02/26 06:26:01;;;;;;;10.20;5.30;;;;;;;2.58;68.98;97550.27;107482;1273;48883;-74
2022/02/26 06:28:32;;;;;;;8.70;4.60;;;;;;;3.07;67.07;97553.44;107435;1273;46724;-74
2022/02/26 06:31:04;;;;;;;8.50;5.00;;;;;;;3.48;66.15;97556.77;107479;1273;30509;-74
2022/02/26 06:33:35;;;;;;;10.80;5.20;;;;;;;3.88;64.77;97559.77;107451;1273;45480;-74
2022/02/26 06:36:08;;;;;;;9.60;5.20;;;;;;;4.24;64.19;97561.86;107564;1273;35629;-74
2022/02/26 06:38:39;;;;;;;8.20;4.90;;;;;;;4.73;63.19;97566.27;107560;1273;37625;-74
2022/02/26 06:41:11;;;;;;;9.00;5.40;;;;;;;5.07;62.18;97563.13;107518;1273;39816;-74
2022/02/26 06:43:42;;;;;;;9.40;5.10;;;;;;;5.34;60.82;97565.68;107503;1273;33111;-74
2022/02/26 06:46:13;;;;;;;8.40;4.70;;;;;;;5.41;59.80;97566.27;107521;1273;32894;-74
2022/02/26 06:48:44;;;;;;;8.90;5.80;;;;;;;5.42;58.82;97570.52;107480;1274;35473;-74
2022/02/26 06:51:16;;;;;;;9.90;5.70;;;;;;;5.51;58.07;97567.14;107485;1273;41379;-75
2022/02/26 06:53:47;;;;;;;9.20;6.40;;;;;;;5.57;57.39;97571.91;107421;1274;39798;-74
2022/02/26 06:56:18;;;;;;;9.20;6.10;;;;;;;5.57;56.70;97573.13;107504;1273;38384;-74
2022/02/26 06:58:49;;;;;;;8.10;5.60;;;;;;;5.62;56.06;97572.56;107508;1273;43681;-74
2022/02/26 07:01:20;;;;;;;8.40;5.50;;;;;;;5.65;55.98;97580.30;107455;1273;32824;-74
2022/02/26 07:03:51;;;;;;;8.20;5.80;;;;;;;5.71;54.66;97585.19;107391;1273;73388;-74
2022/02/26 07:06:22;;;;;;;8.90;5.50;;;;;;;5.49;54.30;97591.75;107469;1273;39850;-74
2022/02/26 07:08:53;;;;;;;7.70;5.20;;;;;;;5.69;54.77;97593.04;107490;1274;43782;-74
2022/02/26 07:11:24;;;;;;;8.80;5.60;;;;;;;5.97;54.26;97598.52;107522;1273;31708;-74
2022/02/26 07:13:56;;;;;;;8.50;5.60;;;;;;;6.33;54.36;97605.33;107436;1273;34823;-74
2022/02/26 07:16:27;;;;;;;7.70;5.30;;;;;;;6.83;54.14;97610.61;107441;1274;39817;-74
2022/02/26 07:18:58;;;;;;;10.00;5.40;;;;;;;7.47;53.34;97612.77;107441;1273;46943;-75
2022/02/26 07:21:29;;;;;;;9.00;5.00;;;;;;;7.93;52.05;97615.18;107490;1273;37115;-74
2022/02/26 07:24:00;;;;;;;6.20;4.60;;;;;;;8.48;52.24;97615.46;107452;1273;37967;-74
2022/02/26 07:26:32;;;;;;;8.40;4.80;;;;;;;9.22;51.42;97619.59;107548;1273;28342;-74
2022/02/26 07:29:05;;;;;;;8.40;5.20;;;;;;;9.60;49.84;97619.38;107385;1274;37747;-74
2022/02/26 07:31:36;;;;;;;8.10;4.90;;;;;;;9.33;49.31;97623.77;107460;1275;39282;-74
2022/02/26 07:34:07;;;;;;;7.80;5.30;;;;;;;8.90;48.77;97626.70;107525;1273;41557;-74
2022/02/26 07:36:38;;;;;;;7.10;5.00;;;;;;;8.65;48.87;97627.05;107585;1273;37057;-74
2022/02/26 07:39:09;;;;;;;8.20;5.20;;;;;;;8.03;49.17;97634.65;107578;1271;38853;-74
2022/02/26 07:41:40;;;;;;;9.20;5.30;;;;;;;7.14;49.42;97635.20;107566;1273;30095;-74
2022/02/26 07:44:12;;;;;;;8.00;4.50;;;;;;;6.12;50.31;97641.55;107489;1273;36510;-74
2022/02/26 07:46:44;;;;;;;8.30;4.70;;;;;;;5.20;51.05;97644.86;107532;1273;38283;-74
2022/02/26 07:49:15;;;;;;;11.20;5.80;;;;;;;4.45;52.24;97646.59;107480;1273;32107;-74
2022/02/26 07:51:46;;;;;;;10.30;5.30;;;;;;;4.07;53.40;97653.21;107503;1273;57837;-73
2022/02/26 07:54:18;;;;;;;7.60;5.60;;;;;;;3.71;54.14;97656.06;107466;1273;39172;-73
2022/02/26 07:56:49;;;;;;;10.70;5.70;;;;;;;3.33;54.91;97656.27;107575;1273;30158;-73
2022/02/26 07:59:21;;;;;;;9.20;5.70;;;;;;;3.12;55.70;97660.84;107545;1273;36837;-73
2022/02/26 08:01:56;;;;;;;10.10;5.50;;;;;;;2.97;56.05;97659.37;107506;1273;34616;-73
2022/02/26 08:04:27;;;;;;;10.40;6.00;;;;;;;2.90;56.86;97658.98;107489;1273;29710;-73
2022/02/26 08:06:59;;;;;;;10.30;5.70;;;;;;;3.01;57.15;97662.76;107526;1273;35376;-73
2022/02/26 08:09:30;;;;;;;8.90;4.70;;;;;;;2.89;57.05;97664.22;107497;1273;37944;-73
2022/02/26 08:12:01;;;;;;;10.50;5.10;;;;;;;2.58;57.03;97670.11;107492;1271;34080;-73
2022/02/26 08:14:34;;;;;;;9.70;5.10;;;;;;;2.34;57.65;97672.98;107483;1273;43229;-73
2022/02/26 08:17:06;;;;;;;8.60;4.70;;;;;;;2.20;58.06;97674.21;107541;1273;33233;-73
2022/02/26 08:19:38;;;;;;;8.00;5.40;;;;;;;2.47;58.77;97671.95;107567;1273;32224;-72
2022/02/26 08:22:09;;;;;;;7.70;5.20;;;;;;;4.24;59.05;97669.01;107567;1273;39785;-73
2022/02/26 08:24:40;;;;;;;8.70;4.30;;;;;;;6.01;57.37;97667.40;107565;1273;30576;-73
2022/02/26 08:27:13;;;;;;;6.10;4.50;;;;;;;7.00;55.26;97664.45;107490;1273;39706;-74
2022/02/26 08:29:44;;;;;;;7.60;4.20;;;;;;;7.90;54.21;97662.30;107518;1273;33359;-72
2022/02/26 08:32:15;;;;;;;7.00;3.90;;;;;;;9.50;53.12;97658.45;107475;1273;32083;-73
2022/02/26 08:34:46;;;;;;;7.80;3.90;;;;;;;10.29;50.53;97663.48;107541;1272;28831;-73
2022/02/26 08:37:20;;;;;;;6.40;3.40;;;;;;;10.24;49.33;97662.27;107571;1273;34164;-73
2022/02/26 08:39:51;;;;;;;8.00;3.70;;;;;;;9.48;48.49;97668.05;107493;1273;34231;-73
2022/02/26 08:42:25;;;;;;;6.60;3.80;;;;;;;9.00;48.05;97669.54;107475;1273;46491;-73
2022/02/26 08:44:56;;;;;;;7.50;3.70;;;;;;;8.53;47.72;97671.61;107501;1273;39540;-73
2022/02/26 08:47:27;;;;;;;10.60;5.10;;;;;;;7.58;49.09;97675.25;107536;1273;32257;-73
2022/02/26 08:50:00;;;;;;;9.00;4.50;;;;;;;6.75;49.67;97682.95;107526;1273;36556;-73
2022/02/26 08:52:32;;;;;;;10.40;4.20;;;;;;;6.02;50.54;97692.60;107536;1273;29781;-73
2022/02/26 08:55:03;;;;;;;12.60;4.20;;;;;;;5.67;51.73;97690.20;107519;1273;39400;-73
2022/02/26 08:57:35;;;;;;;8.70;3.70;;;;;;;5.51;52.63;97696.04;107564;1273;31094;-73
2022/02/26 09:00:12;;;;;;;12.70;4.40;;;;;;;5.45;53.17;97695.41;107563;1272;31817;-73
2022/02/26 09:02:44;;;;;;;10.30;4.00;;;;;;;5.39;53.71;97700.05;107551;1273;32507;-74
2022/02/26 09:05:15;;;;;;;10.00;3.80;;;;;;;5.17;54.25;97706.33;107516;1272;45119;-73
2022/02/26 09:07:48;;;;;;;7.70;3.80;;;;;;;4.99;54.77;97710.36;107553;1273;35356;-73
2022/02/26 09:10:19;;;;;;;9.60;4.10;;;;;;;4.66;54.57;97707.73;107568;1273;32612;-73
2022/02/26 09:12:51;;;;;;;8.60;3.90;;;;;;;4.04;55.02;97709.83;107419;1274;29065;-73
2022/02/26 09:15:22;;;;;;;10.20;4.60;;;;;;;3.58;55.84;97708.70;107481;1274;33854;-73
2022/02/26 09:17:55;;;;;;;9.20;4.10;;;;;;;3.34;56.62;97715.59;107483;1275;39052;-74
2022/02/26 09:20:26;;;;;;;8.50;4.80;;;;;;;3.24;57.33;97720.04;107489;1273;34510;-73
2022/02/26 09:22:58;;;;;;;11.00;4.70;;;;;;;3.26;57.97;97722.41;107510;1274;35625;-73
2022/02/26 09:25:29;;;;;;;12.60;4.30;;;;;;;3.42;58.20;97726.34;107548;1273;37167;-73
2022/02/26 09:28:00;;;;;;;10.40;4.80;;;;;;;3.50;57.77;97731.71;107524;1273;38475;-73
2022/02/26 09:30:32;;;;;;;10.90;5.10;;;;;;;3.51;57.92;97733.36;107376;1274;40278;-73
2022/02/26 09:33:04;;;;;;;13.90;5.70;;;;;;;3.52;57.74;97738.30;107462;1273;39854;-73
2022/02/26 09:35:35;;;;;;;11.50;4.50;;;;;;;3.48;57.64;97740.39;107522;1273;33800;-73
2022/02/26 09:38:06;;;;;;;9.80;4.30;;;;;;;3.40;57.54;97742.10;107581;1275;28989;-74
2022/02/26 09:40:37;;;;;;;11.30;4.60;;;;;;;3.24;57.52;97744.67;107542;1274;48065;-74
2022/02/26 09:43:10;;;;;;;11.60;4.80;;;;;;;3.11;57.71;97750.60;107428;1274;36558;-73
2022/02/26 09:45:41;;;;;;;11.00;4.40;;;;;;;3.05;58.17;97755.60;107525;1273;49976;-73
2022/02/26 09:48:13;;;;;;;10.40;5.20;;;;;;;3.04;58.29;97761.41;107536;1274;39297;-74
2022/02/26 09:50:44;;;;;;;10.20;5.60;;;;;;;2.97;58.39;97764.35;107521;1273;40111;-74
2022/02/26 09:53:15;;;;;;;9.80;4.70;;;;;;;2.84;58.72;97767.80;107474;1273;32228;-74
2022/02/26 09:55:47;;;;;;;13.10;5.50;;;;;;;2.73;59.00;97774.69;107548;1273;28344;-74
2022/02/26 09:58:22;;;;;;;13.70;5.90;;;;;;;2.66;59.24;97777.27;107570;1275;30025;-74
2022/02/26 10:00:53;;;;;;;16.00;8.60;;;;;;;2.73;59.65;97781.30;107468;1274;69539;-73
2022/02/26 10:03:32;;;;;;;15.20;7.60;;;;;;;2.88;59.77;97784.20;107432;1273;75022;-73
2022/02/26 10:06:09;;;;;;;12.30;5.80;;;;;;;3.02;59.82;97783.13;107537;1275;45954;-73
2022/02/26 10:08:47;;;;;;;12.20;5.70;;;;;;;3.12;59.70;97786.80;107544;1274;36463;-73
2022/02/26 10:11:28;;;;;;;12.20;5.80;;;;;;;3.23;59.87;97790.02;107552;1273;39819;-73
2022/02/26 10:14:06;;;;;;;10.80;5.90;;;;;;;3.35;59.91;97790.73;107558;1273;61962;-74
2022/02/26 10:16:48;;;;;;;12.30;6.70;;;;;;;3.43;59.95;97793.20;107561;1273;33673;-74
2022/02/26 10:19:26;;;;;;;15.80;7.70;;;;;;;3.49;59.88;97794.88;107533;1273;33583;-73
2022/02/26 10:21:58;;;;;;;14.80;7.30;;;;;;;3.61;59.59;97795.06;107529;1273;37640;-73
2022/02/26 10:24:31;;;;;;;11.60;7.10;;;;;;;3.71;59.67;97798.23;107516;1273;40148;-73
2022/02/26 10:27:06;;;;;;;15.50;7.60;;;;;;;3.82;59.80;97801.28;107531;1273;31276;-74
2022/02/26 10:29:39;;;;;;;14.80;7.50;;;;;;;3.93;59.31;97805.52;107602;1273;32205;-73
2022/02/26 10:32:12;;;;;;;14.50;7.80;;;;;;;4.01;59.15;97804.66;107523;1273;33242;-73
2022/02/26 10:34:44;;;;;;;15.80;7.20;;;;;;;4.06;58.98;97805.20;107370;1274;39029;-74
2022/02/26 10:37:18;;;;;;;13.80;7.80;;;;;;;4.05;58.89;97808.35;107479;1273;39600;-73
2022/02/26 10:39:51;;;;;;;16.60;7.80;;;;;;;4.08;59.17;97809.48;107545;1275;40772;-73
2022/02/26 10:42:25;;;;;;;11.20;6.20;;;;;;;4.21;59.17;97807.33;107485;1273;45503;-74
2022/02/26 10:45:12;;;;;;;12.40;6.80;;;;;;;4.27;58.80;97813.33;107564;1274;44731;-73
2022/02/26 10:47:45;;;;;;;12.30;7.00;;;;;;;4.15;58.45;97815.46;107521;1275;36771;-74
2022/02/26 10:50:23;;;;;;;15.30;7.10;;;;;;;4.01;58.90;97816.09;107544;1273;33277;-73
2022/02/26 10:52:59;;;;;;;13.20;6.40;;;;;;;4.06;58.92;97816.88;107512;1273;37984;-74
2022/02/26 10:55:57;;;;;;;12.50;6.50;;;;;;;4.15;59.17;97813.45;107500;1273;40642;-74
2022/02/26 10:58:29;;;;;;;13.10;7.00;;;;;;;4.36;59.08;97810.90;107543;1273;44740;-73
2022/02/26 11:01:04;;;;;;;12.40;6.40;;;;;;;4.55;59.07;97812.11;107513;1273;40103;-73
2022/02/26 11:03:36;;;;;;;14.80;6.80;;;;;;;4.74;59.02;97811.23;107517;1273;29500;-74
2022/02/26 11:06:09;;;;;;;14.90;7.00;;;;;;;4.91;58.84;97811.02;107553;1270;43069;-73
2022/02/26 11:08:42;;;;;;;13.50;6.60;;;;;;;5.03;58.50;97811.50;107487;1274;33107;-74
2022/02/26 11:11:13;;;;;;;12.90;6.90;;;;;;;5.20;58.49;97812.22;107538;1273;28529;-74
2022/02/26 11:13:46;;;;;;;16.80;6.90;;;;;;;5.28;57.65;97809.29;107510;1273;37765;-74
2022/02/26 11:16:20;;;;;;;11.30;6.60;;;;;;;5.14;57.22;97812.23;107573;1273;34749;-74
2022/02/26 11:18:53;;;;;;;13.10;7.00;;;;;;;4.82;56.91;97811.39;107517;1273;45261;-74
2022/02/26 11:21:24;;;;;;;12.70;6.70;;;;;;;4.77;57.78;97809.80;107597;1273;34628;-73
2022/02/26 11:23:55;;;;;;;14.30;7.20;;;;;;;4.96;57.53;97806.30;107519;1273;28370;-73
2022/02/26 11:26:27;;;;;;;13.20;7.00;;;;;;;4.74;57.15;97803.45;107557;1273;35477;-74
2022/02/26 11:29:05;;;;;;;12.60;6.80;;;;;;;4.69;57.83;97802.54;107531;1273;53172;-74
2022/02/26 11:31:41;;;;;;;15.70;7.10;;;;;;;4.70;57.35;97800.99;107593;1273;42136;-74
2022/02/26 11:34:12;;;;;;;15.40;6.20;;;;;;;4.46;57.18;97798.66;107553;1273;36407;-73
2022/02/26 11:36:52;;;;;;;14.90;7.60;;;;;;;4.32;57.60;97799.21;107492;1273;38811;-74
2022/02/26 11:39:32;;;;;;;14.90;6.90;;;;;;;4.25;57.75;97798.64;107668;1273;31589;-73
2022/02/26 11:42:26;;;;;;;12.40;6.90;;;;;;;4.23;58.04;97801.02;107544;1273;33796;-73
2022/02/26 11:45:04;;;;;;;17.00;8.10;;;;;;;4.28;58.05;97797.70;107541;1273;36887;-73
2022/02/26 11:47:41;;;;;;;15.60;8.00;;;;;;;4.27;58.17;97794.80;107502;1273;40222;-73